Aérodrome :
LOGIN :

S'inscrire | Disclaimer

   EN    FR    IT 

 










Légende :    VFR   VFR Marginal   IFR   IFR Intensif   IFR Très Intensif
Visi : 
Plafond : 
>= 8 km
>= 3000ft
5 à 8 km
1000 à 3000 ft
1500m à 5 km
500 à 1000 ft
800 à 1500m
200 à 500 ft
< 800m
< 200 ft
Symboles :   Orages  Brouillard  Fortes neiges  Fortes précipitations  Vent > 20 kt
SIGMETs :   Divers  Orages  Givrage  Turbulence  Onde Orograph.  Cendres Volcan.







- Altitude de l'aérodrome : 295 ft
- Code IATA : BWE


EDVE - Braunschweig

DERNIER METAR :
  • 211520Z 23005KT 7000 -RA BR FEW004 BKN013 OVC021 10/10 Q1008

METARs EXPIRÉS :
  • 211450Z 23005KT 7000 -RA FEW004 BKN009 OVC011 10/10 Q1008
  • 211420Z 24005KT 8000 -RA BKN004 OVC008 10/10 Q1009
  • 211350Z 24004KT 4300 -RA BR BKN004 BKN008 OVC013 10/10 Q1009
  • 211320Z 24005KT 7000 FEW006 BKN013 OVC015 10/10 Q1009
  • 211250Z 24004KT 7000 -RA BKN003 OVC006 10/10 Q1009

TAF TAF EDVE
Valide du 21 à 15h jusqu'au 21 à 21h UTC


211400Z 2115/2121 23005KT 4500 -DZ BKN006
TEMPO 2115/2121 2500 DZ BKN004
PROB30
TEMPO 2115/2121 6000
Pas de NOTAMs connus pour ce terrain.



MET'MAP, la Météo Aéronautique d'un coup d'oeil ! - Copyright ORBIFLY Décembre 2007 - Disclaimer

ORBIFLY MET'MAP TEAM :

Programmation & Développement : Alexandra Zaïnal
Conception & Développement : Baudouin d'Aumeries
Co-Programmation & Développement : Marc-Olivier Méhu
Soutien technique & logistique : Manuel Goepfert

Contact : metmap@orbifly.com




SOURCES & CREDITS :

   NOAA